DAL63 LFPG-CYHZ
Flight info
| Callsign | DAL63 |
|---|---|
| Flight time | N/A |
| Altitude | 38000 |
| Route | ELCOB6H/08L ELCOB UT300 SENLO DCT JSY DCT LIZAD DCT LESLU DCT TOBOR/M083F390 DCT 5230N02000W 5130N03000W 50N040W 4830N05000W DCT MUSAK/N0470F400 DCT TIGOR Q846 NOTOP DCT CAYLY CABOT5 |
| Aircraft | B772/H-SDE2E3FGHIJ5LORVWXY/LB1D1 |
Departure
| Time | N/A |
|---|---|
| Airport | Charles de Gaulle International Airport (LFPG) |
Arrival
| Time | 2026-05-08 03:05 |
|---|---|
| Airport | Halifax / Stanfield International Airport (CYHZ) |
| Time | Latitude | Longitude | Altitude | Speed | Heading |
|---|---|---|---|---|---|
| 2026-05-07 21:06 | 49.20070 | -1.91458 | 32022 ft | 468 kts | 281° |
| 2026-05-07 21:07 | 49.20821 | -1.96296 | 32025 ft | 467 kts | 281° |
| 2026-05-07 21:07 | 49.22323 | -2.05964 | 32026 ft | 467 kts | 282° |
| 2026-05-07 21:08 | 49.23951 | -2.15592 | 32022 ft | 468 kts | 283° |
| 2026-05-07 21:08 | 49.25641 | -2.25216 | 32038 ft | 468 kts | 283° |
| 2026-05-07 21:09 | 49.27289 | -2.34764 | 32023 ft | 467 kts | 282° |
| 2026-05-07 21:09 | 49.28922 | -2.44377 | 32021 ft | 466 kts | 282° |
| 2026-05-07 21:10 | 49.30538 | -2.53988 | 32021 ft | 466 kts | 282° |
| 2026-05-07 21:10 | 49.32146 | -2.63605 | 32018 ft | 466 kts | 282° |
| 2026-05-07 21:11 | 49.33737 | -2.73168 | 32017 ft | 466 kts | 282° |
| 2026-05-07 21:11 | 49.36124 | -2.87618 | 32016 ft | 466 kts | 282° |
| 2026-05-07 21:12 | 49.37705 | -2.97254 | 32016 ft | 466 kts | 282° |
| 2026-05-07 21:12 | 49.39277 | -3.06890 | 32018 ft | 466 kts | 282° |
| 2026-05-07 21:13 | 49.40841 | -3.16535 | 32023 ft | 466 kts | 281° |
| 2026-05-07 21:13 | 49.42388 | -3.26126 | 32006 ft | 466 kts | 281° |
| 2026-05-07 21:14 | 49.43938 | -3.35795 | 32009 ft | 466 kts | 281° |
| 2026-05-07 21:14 | 49.45479 | -3.45465 | 32008 ft | 466 kts | 281° |
| 2026-05-07 21:15 | 49.47011 | -3.55137 | 32008 ft | 465 kts | 281° |
| 2026-05-07 21:15 | 49.48526 | -3.64754 | 32020 ft | 466 kts | 281° |
| 2026-05-07 21:16 | 49.50045 | -3.74461 | 32009 ft | 467 kts | 281° |
| 2026-05-07 21:16 | 49.51557 | -3.84179 | 32004 ft | 467 kts | 281° |
| 2026-05-07 21:17 | 49.53060 | -3.93901 | 32005 ft | 467 kts | 281° |
| 2026-05-07 21:17 | 49.54543 | -4.03562 | 32018 ft | 467 kts | 281° |
| 2026-05-07 21:18 | 49.56026 | -4.13290 | 32010 ft | 467 kts | 281° |
| 2026-05-07 21:18 | 49.57505 | -4.23031 | 32008 ft | 467 kts | 281° |
| 2026-05-07 21:19 | 49.59393 | -4.32613 | 32004 ft | 470 kts | 290° |
| 2026-05-07 21:19 | 49.62415 | -4.41586 | 32007 ft | 473 kts | 300° |
| 2026-05-07 21:20 | 49.65953 | -4.50090 | 32019 ft | 474 kts | 300° |
| 2026-05-07 21:20 | 49.69520 | -4.58666 | 32019 ft | 475 kts | 300° |
| 2026-05-07 21:21 | 49.73054 | -4.67283 | 32009 ft | 475 kts | 300° |
| 2026-05-07 21:21 | 49.76563 | -4.75923 | 32008 ft | 474 kts | 300° |
| 2026-05-07 21:22 | 49.80035 | -4.84511 | 32011 ft | 474 kts | 300° |
| 2026-05-07 21:22 | 49.83520 | -4.93160 | 32007 ft | 474 kts | 300° |
| 2026-05-07 21:23 | 49.87001 | -5.01823 | 32011 ft | 474 kts | 300° |
| 2026-05-07 21:23 | 49.90483 | -5.10517 | 31998 ft | 475 kts | 300° |
| 2026-05-07 21:24 | 49.93936 | -5.19165 | 31994 ft | 475 kts | 300° |
| 2026-05-07 21:24 | 49.97410 | -5.27895 | 31994 ft | 475 kts | 299° |
| 2026-05-07 21:25 | 50.00874 | -5.36629 | 31994 ft | 475 kts | 299° |
| 2026-05-07 21:25 | 50.04332 | -5.45379 | 31993 ft | 475 kts | 299° |
| 2026-05-07 21:26 | 50.07778 | -5.54126 | 31994 ft | 473 kts | 300° |
| 2026-05-07 21:26 | 50.11181 | -5.62792 | 31999 ft | 471 kts | 299° |
| 2026-05-07 21:27 | 50.14592 | -5.71507 | 31998 ft | 471 kts | 299° |
| 2026-05-07 21:27 | 50.17993 | -5.80228 | 32004 ft | 471 kts | 299° |
| 2026-05-07 21:28 | 50.21391 | -5.88970 | 32032 ft | 471 kts | 299° |
| 2026-05-07 21:28 | 50.24761 | -5.97671 | 32026 ft | 471 kts | 299° |
| 2026-05-07 21:29 | 50.28140 | -6.06422 | 32013 ft | 469 kts | 300° |
| 2026-05-07 21:29 | 50.31495 | -6.15138 | 32020 ft | 466 kts | 299° |
| 2026-05-07 21:30 | 50.34829 | -6.23831 | 32023 ft | 466 kts | 299° |
| 2026-05-07 21:30 | 50.38135 | -6.32481 | 32022 ft | 466 kts | 299° |
| 2026-05-07 21:31 | 50.41460 | -6.41210 | 32023 ft | 467 kts | 299° |
| 2026-05-07 21:31 | 50.44784 | -6.49966 | 32024 ft | 467 kts | 300° |
| 2026-05-07 21:32 | 50.48084 | -6.58687 | 32025 ft | 463 kts | 300° |
| 2026-05-07 21:32 | 50.51357 | -6.67362 | 32018 ft | 461 kts | 300° |
| 2026-05-07 21:33 | 50.54590 | -6.75963 | 32023 ft | 460 kts | 300° |
| 2026-05-07 21:33 | 50.57843 | -6.84648 | 32022 ft | 461 kts | 300° |
| 2026-05-07 21:34 | 50.61093 | -6.93355 | 32022 ft | 462 kts | 300° |
| 2026-05-07 21:34 | 50.64343 | -7.02088 | 32020 ft | 461 kts | 300° |
| 2026-05-07 21:35 | 50.67552 | -7.10743 | 32018 ft | 455 kts | 300° |
| 2026-05-07 21:35 | 50.70709 | -7.19284 | 32019 ft | 453 kts | 300° |
| 2026-05-07 21:36 | 50.73877 | -7.27886 | 32025 ft | 454 kts | 300° |
| 2026-05-07 21:36 | 50.77046 | -7.36521 | 32023 ft | 455 kts | 300° |
| 2026-05-07 21:37 | 50.80219 | -7.45192 | 32023 ft | 456 kts | 300° |
| 2026-05-07 21:37 | 50.83368 | -7.53832 | 32016 ft | 455 kts | 300° |
| 2026-05-07 21:38 | 50.86497 | -7.62446 | 32018 ft | 450 kts | 299° |
| 2026-05-07 21:38 | 50.89614 | -7.71057 | 32019 ft | 451 kts | 299° |
| 2026-05-07 21:39 | 50.92733 | -7.79703 | 32017 ft | 452 kts | 299° |
| 2026-05-07 21:39 | 50.95824 | -7.88312 | 32016 ft | 452 kts | 299° |
| 2026-05-07 21:40 | 50.98936 | -7.96990 | 32016 ft | 452 kts | 299° |
| 2026-05-07 21:40 | 51.01592 | -8.06012 | 32013 ft | 451 kts | 291° |
| 2026-05-07 21:41 | 51.03878 | -8.15239 | 32005 ft | 447 kts | 291° |
| 2026-05-07 21:41 | 51.06137 | -8.24349 | 32016 ft | 446 kts | 291° |
| 2026-05-07 21:42 | 51.08413 | -8.33522 | 32014 ft | 446 kts | 291° |
| 2026-05-07 21:42 | 51.10687 | -8.42705 | 32012 ft | 447 kts | 291° |
| 2026-05-07 21:43 | 51.12958 | -8.51911 | 32009 ft | 447 kts | 291° |
| 2026-05-07 21:43 | 51.15223 | -8.61129 | 32010 ft | 446 kts | 290° |
| 2026-05-07 21:44 | 51.17455 | -8.70256 | 32005 ft | 444 kts | 290° |
| 2026-05-07 21:44 | 51.19686 | -8.79414 | 32005 ft | 443 kts | 290° |
| 2026-05-07 21:45 | 51.21908 | -8.88573 | 32006 ft | 443 kts | 290° |
| 2026-05-07 21:45 | 51.24124 | -8.97743 | 32019 ft | 443 kts | 290° |
| 2026-05-07 21:46 | 51.26334 | -9.06936 | 32006 ft | 444 kts | 290° |
| 2026-05-07 21:46 | 51.28519 | -9.16057 | 32005 ft | 441 kts | 289° |
| 2026-05-07 21:47 | 51.30701 | -9.25204 | 32003 ft | 439 kts | 289° |
| 2026-05-07 21:47 | 51.32867 | -9.34321 | 32006 ft | 439 kts | 289° |
| 2026-05-07 21:48 | 51.35026 | -9.43450 | 32003 ft | 439 kts | 289° |
| 2026-05-07 21:48 | 51.37166 | -9.52537 | 32003 ft | 440 kts | 289° |
| 2026-05-07 21:49 | 51.39316 | -9.61706 | 32006 ft | 440 kts | 289° |
| 2026-05-07 21:49 | 51.41456 | -9.70869 | 32019 ft | 439 kts | 288° |
| 2026-05-07 21:50 | 51.43584 | -9.80018 | 31997 ft | 438 kts | 288° |
| 2026-05-07 21:50 | 51.45699 | -9.89151 | 32001 ft | 437 kts | 288° |
| 2026-05-07 21:51 | 51.47790 | -9.98220 | 32002 ft | 436 kts | 288° |
| 2026-05-07 21:51 | 51.49888 | -10.07361 | 32002 ft | 437 kts | 288° |
| 2026-05-07 21:52 | 51.51981 | -10.16516 | 31998 ft | 437 kts | 288° |
| 2026-05-07 21:52 | 51.54054 | -10.25626 | 32001 ft | 437 kts | 288° |
| 2026-05-07 21:53 | 51.56134 | -10.34806 | 31998 ft | 437 kts | 288° |
| 2026-05-07 21:53 | 51.58208 | -10.43996 | 32020 ft | 437 kts | 287° |
| 2026-05-07 21:54 | 51.60274 | -10.53193 | 32000 ft | 437 kts | 287° |
| 2026-05-07 21:54 | 51.62333 | -10.62400 | 31993 ft | 437 kts | 287° |
| 2026-05-07 21:55 | 51.64369 | -10.71543 | 32003 ft | 436 kts | 287° |
| 2026-05-07 21:55 | 51.66405 | -10.80725 | 31993 ft | 435 kts | 287° |
| 2026-05-07 21:56 | 51.68428 | -10.89891 | 31991 ft | 434 kts | 287° |
| 2026-05-07 21:56 | 51.70441 | -10.99051 | 31992 ft | 434 kts | 286° |
| 2026-05-07 21:57 | 51.72434 | -11.08163 | 31992 ft | 434 kts | 286° |
| 2026-05-07 21:57 | 51.74435 | -11.17353 | 31992 ft | 434 kts | 286° |
| 2026-05-07 21:58 | 51.76432 | -11.26563 | 31998 ft | 435 kts | 285° |
| 2026-05-07 21:58 | 51.78419 | -11.35765 | 31998 ft | 433 kts | 285° |
| 2026-05-07 21:59 | 51.80380 | -11.44890 | 31992 ft | 432 kts | 285° |
| 2026-05-07 21:59 | 51.82344 | -11.54072 | 31995 ft | 432 kts | 285° |
| 2026-05-07 22:00 | 51.84300 | -11.63257 | 32001 ft | 432 kts | 285° |
| 2026-05-07 22:00 | 51.86252 | -11.72466 | 32000 ft | 433 kts | 285° |
| 2026-05-07 22:01 | 51.88186 | -11.81629 | 31991 ft | 433 kts | 285° |
| 2026-05-07 22:01 | 51.90125 | -11.90862 | 31990 ft | 433 kts | 284° |
| 2026-05-07 22:02 | 51.92056 | -12.00094 | 32015 ft | 433 kts | 284° |
| 2026-05-07 22:02 | 51.93979 | -12.09332 | 31999 ft | 432 kts | 284° |
| 2026-05-07 22:03 | 51.95892 | -12.18566 | 31993 ft | 432 kts | 284° |
| 2026-05-07 22:03 | 51.97785 | -12.27741 | 31993 ft | 432 kts | 284° |
| 2026-05-07 22:04 | 51.99680 | -12.36975 | 32000 ft | 432 kts | 284° |
| 2026-05-07 22:04 | 52.01570 | -12.46225 | 32002 ft | 431 kts | 284° |
| 2026-05-07 22:05 | 52.03450 | -12.55471 | 31983 ft | 431 kts | 284° |
| 2026-05-07 22:05 | 52.05311 | -12.64663 | 32004 ft | 431 kts | 284° |
| 2026-05-07 22:06 | 52.07177 | -12.73928 | 32006 ft | 431 kts | 283° |
| 2026-05-07 22:06 | 52.09038 | -12.83209 | 32011 ft | 432 kts | 283° |
| 2026-05-07 22:07 | 52.10894 | -12.92505 | 32008 ft | 432 kts | 283° |
| 2026-05-07 22:07 | 52.12727 | -13.01735 | 32002 ft | 432 kts | 283° |
| 2026-05-07 22:08 | 52.14564 | -13.11029 | 32009 ft | 431 kts | 283° |
| 2026-05-07 22:08 | 52.16393 | -13.20324 | 32009 ft | 431 kts | 283° |
| 2026-05-07 22:09 | 52.18214 | -13.29630 | 32008 ft | 431 kts | 283° |
| 2026-05-07 22:09 | 52.20028 | -13.38938 | 32014 ft | 431 kts | 283° |
| 2026-05-07 22:10 | 52.21823 | -13.48202 | 32023 ft | 432 kts | 283° |
| 2026-05-07 22:10 | 52.23626 | -13.57546 | 32027 ft | 433 kts | 283° |
| 2026-05-07 22:11 | 52.25429 | -13.66937 | 32018 ft | 434 kts | 283° |
| 2026-05-07 22:11 | 52.27227 | -13.76352 | 32018 ft | 435 kts | 283° |
| 2026-05-07 22:12 | 52.29009 | -13.85726 | 32021 ft | 435 kts | 283° |
| 2026-05-07 22:12 | 52.30795 | -13.95168 | 32018 ft | 435 kts | 283° |
| 2026-05-07 22:13 | 52.32574 | -14.04618 | 32018 ft | 436 kts | 282° |
| 2026-05-07 22:13 | 52.34347 | -14.14092 | 32019 ft | 436 kts | 282° |
| 2026-05-07 22:14 | 52.36104 | -14.23527 | 32035 ft | 437 kts | 282° |
| 2026-05-07 22:14 | 52.37867 | -14.33041 | 32030 ft | 437 kts | 282° |
| 2026-05-07 22:15 | 52.39625 | -14.42585 | 32033 ft | 439 kts | 282° |
| 2026-05-07 22:15 | 52.41381 | -14.52159 | 32035 ft | 440 kts | 282° |
| 2026-05-07 22:16 | 52.43121 | -14.61706 | 32044 ft | 441 kts | 282° |
| 2026-05-07 22:16 | 52.44868 | -14.71343 | 32035 ft | 441 kts | 282° |
| 2026-05-07 22:17 | 52.46607 | -14.80991 | 32030 ft | 441 kts | 282° |
| 2026-05-07 22:17 | 52.48335 | -14.90619 | 32034 ft | 440 kts | 282° |
| 2026-05-07 22:18 | 52.50151 | -15.05165 | 32042 ft | 432 kts | 270° |
| 2026-05-07 22:19 | 52.50343 | -15.15005 | 32055 ft | 432 kts | 269° |
| 2026-05-07 22:19 | 52.50523 | -15.24864 | 32045 ft | 432 kts | 269° |
| 2026-05-07 22:20 | 52.50702 | -15.34727 | 32042 ft | 432 kts | 269° |
| 2026-05-07 22:20 | 52.50876 | -15.44591 | 32042 ft | 432 kts | 268° |
| 2026-05-07 22:21 | 52.51042 | -15.54390 | 32043 ft | 432 kts | 268° |
| 2026-05-07 22:21 | 52.51201 | -15.64255 | 32052 ft | 432 kts | 268° |
| 2026-05-07 22:22 | 52.51351 | -15.74113 | 32052 ft | 432 kts | 268° |
| 2026-05-07 22:22 | 52.51494 | -15.83974 | 32053 ft | 432 kts | 268° |
| 2026-05-07 22:23 | 52.51627 | -15.93769 | 32049 ft | 432 kts | 268° |
| 2026-05-07 22:23 | 52.51753 | -16.03627 | 32048 ft | 432 kts | 268° |
| 2026-05-07 22:24 | 52.51870 | -16.13488 | 32050 ft | 432 kts | 268° |
| 2026-05-07 22:24 | 52.51979 | -16.23296 | 32058 ft | 433 kts | 268° |
| 2026-05-07 22:25 | 52.52081 | -16.33198 | 32055 ft | 434 kts | 268° |
| 2026-05-07 22:25 | 52.52174 | -16.43127 | 32055 ft | 435 kts | 268° |
| 2026-05-07 22:26 | 52.52260 | -16.53073 | 32057 ft | 436 kts | 268° |
| 2026-05-07 22:26 | 52.52337 | -16.63016 | 32057 ft | 436 kts | 268° |
| 2026-05-07 22:27 | 52.52406 | -16.72897 | 32056 ft | 436 kts | 268° |
| 2026-05-07 22:27 | 52.52466 | -16.82863 | 32058 ft | 437 kts | 267° |
| 2026-05-07 22:28 | 52.52519 | -16.92833 | 32079 ft | 437 kts | 268° |
| 2026-05-07 22:28 | 52.52562 | -17.02826 | 32066 ft | 438 kts | 268° |
| 2026-05-07 22:29 | 52.52598 | -17.12768 | 32065 ft | 438 kts | 267° |
| 2026-05-07 22:29 | 52.52625 | -17.22775 | 32073 ft | 438 kts | 268° |
| 2026-05-07 22:30 | 52.52644 | -17.32784 | 32067 ft | 439 kts | 268° |
| 2026-05-07 22:30 | 52.52654 | -17.41109 | 32068 ft | 439 kts | 267° |
| 2026-05-07 22:31 | 52.52657 | -17.51127 | 32069 ft | 439 kts | 267° |
| 2026-05-07 22:31 | 52.52652 | -17.61146 | 32075 ft | 439 kts | 267° |
| 2026-05-07 22:32 | 52.52638 | -17.71090 | 32067 ft | 438 kts | 267° |
| 2026-05-07 22:32 | 52.52616 | -17.81109 | 32070 ft | 439 kts | 267° |
| 2026-05-07 22:33 | 52.52586 | -17.91141 | 32079 ft | 439 kts | 267° |
| 2026-05-07 22:33 | 52.52540 | -18.02804 | 32080 ft | 440 kts | 267° |
| 2026-05-07 22:34 | 52.52499 | -18.11210 | 32070 ft | 439 kts | 267° |
| 2026-05-07 22:34 | 52.52444 | -18.21175 | 32075 ft | 439 kts | 267° |
| 2026-05-07 22:35 | 52.52379 | -18.31208 | 32079 ft | 440 kts | 267° |
| 2026-05-07 22:35 | 52.52306 | -18.41258 | 32080 ft | 440 kts | 267° |
| 2026-05-07 22:36 | 52.52225 | -18.51164 | 32081 ft | 441 kts | 267° |
| 2026-05-07 22:36 | 52.52135 | -18.61190 | 32103 ft | 441 kts | 267° |
| 2026-05-07 22:37 | 52.52036 | -18.71257 | 32086 ft | 442 kts | 267° |
| 2026-05-07 22:37 | 52.51929 | -18.81360 | 32075 ft | 443 kts | 267° |
| 2026-05-07 22:38 | 52.51813 | -18.91437 | 32086 ft | 444 kts | 267° |
| 2026-05-07 22:38 | 52.51688 | -19.01539 | 32090 ft | 445 kts | 267° |
| 2026-05-07 22:39 | 52.51553 | -19.11737 | 32088 ft | 445 kts | 267° |
| 2026-05-07 22:39 | 52.51411 | -19.21827 | 32087 ft | 444 kts | 267° |
| 2026-05-07 22:40 | 52.51261 | -19.31857 | 32086 ft | 445 kts | 267° |
| 2026-05-07 22:40 | 52.51100 | -19.42031 | 32095 ft | 447 kts | 267° |
| 2026-05-07 22:41 | 52.50929 | -19.52245 | 32096 ft | 448 kts | 267° |
| 2026-05-07 22:41 | 52.50748 | -19.62482 | 32098 ft | 449 kts | 267° |
| 2026-05-07 22:42 | 52.50560 | -19.72665 | 32100 ft | 449 kts | 267° |
| 2026-05-07 22:42 | 52.50360 | -19.82901 | 32091 ft | 449 kts | 267° |
| 2026-05-07 22:43 | 52.50152 | -19.93157 | 32108 ft | 450 kts | 267° |
| 2026-05-07 22:43 | 52.49847 | -20.03432 | 32104 ft | 452 kts | 264° |
| 2026-05-07 22:44 | 52.49267 | -20.13706 | 32107 ft | 453 kts | 264° |
| 2026-05-07 22:44 | 52.48664 | -20.23992 | 32102 ft | 453 kts | 264° |
| 2026-05-07 22:45 | 52.48061 | -20.34197 | 32149 ft | 453 kts | 265° |
| 2026-05-07 22:45 | 52.47446 | -20.44513 | 32122 ft | 455 kts | 265° |
| 2026-05-07 22:46 | 52.46823 | -20.54852 | 32100 ft | 457 kts | 265° |
| 2026-05-07 22:46 | 52.46196 | -20.65113 | 32119 ft | 455 kts | 264° |
| 2026-05-07 22:47 | 52.45555 | -20.75432 | 32112 ft | 454 kts | 264° |
| 2026-05-07 22:47 | 52.44907 | -20.85733 | 32109 ft | 454 kts | 264° |
| 2026-05-07 22:48 | 52.44249 | -20.96042 | 32127 ft | 455 kts | 264° |
| 2026-05-07 22:48 | 52.43582 | -21.06346 | 32115 ft | 454 kts | 264° |
| 2026-05-07 22:49 | 52.42910 | -21.16583 | 32134 ft | 454 kts | 264° |
| 2026-05-07 22:49 | 52.42226 | -21.26877 | 32134 ft | 455 kts | 264° |
| 2026-05-07 22:50 | 52.41531 | -21.37166 | 32139 ft | 454 kts | 265° |
| 2026-05-07 22:50 | 52.40827 | -21.47483 | 32140 ft | 457 kts | 265° |
| 2026-05-07 22:51 | 52.40116 | -21.57763 | 32142 ft | 458 kts | 264° |
| 2026-05-07 22:51 | 52.39391 | -21.68120 | 32142 ft | 457 kts | 264° |
| 2026-05-07 22:52 | 52.38659 | -21.78426 | 32126 ft | 455 kts | 264° |
| 2026-05-07 22:52 | 52.37917 | -21.88738 | 32127 ft | 455 kts | 265° |
| 2026-05-07 22:53 | 52.37177 | -21.98905 | 32141 ft | 457 kts | 265° |
| 2026-05-07 22:53 | 52.36413 | -22.09284 | 32154 ft | 461 kts | 265° |
| 2026-05-07 22:54 | 52.35638 | -22.19674 | 32148 ft | 461 kts | 265° |
| 2026-05-07 22:54 | 52.34856 | -22.30029 | 32146 ft | 458 kts | 265° |
| 2026-05-07 22:55 | 52.34072 | -22.40318 | 32150 ft | 461 kts | 265° |
| 2026-05-07 22:55 | 52.33266 | -22.50758 | 32160 ft | 465 kts | 265° |
| 2026-05-07 22:56 | 52.32445 | -22.61279 | 32160 ft | 468 kts | 265° |
| 2026-05-07 22:56 | 52.31610 | -22.71835 | 32153 ft | 468 kts | 265° |
| 2026-05-07 22:57 | 52.30773 | -22.82271 | 32148 ft | 465 kts | 265° |
| 2026-05-07 22:57 | 52.29928 | -22.92713 | 32161 ft | 463 kts | 265° |
| 2026-05-07 22:58 | 52.29075 | -23.03165 | 32171 ft | 465 kts | 265° |
| 2026-05-07 22:58 | 52.28208 | -23.13655 | 32168 ft | 467 kts | 265° |
| 2026-05-07 22:59 | 52.27329 | -23.24169 | 32169 ft | 468 kts | 265° |
| 2026-05-07 22:59 | 52.26444 | -23.34616 | 32142 ft | 468 kts | 265° |
| 2026-05-07 23:00 | 52.25546 | -23.45114 | 32166 ft | 467 kts | 266° |
| 2026-05-07 23:00 | 52.24639 | -23.55624 | 32179 ft | 467 kts | 266° |
| 2026-05-07 23:01 | 52.23722 | -23.66125 | 32179 ft | 468 kts | 265° |
| 2026-05-07 23:01 | 52.22801 | -23.76554 | 32184 ft | 468 kts | 265° |
| 2026-05-07 23:02 | 52.21865 | -23.87055 | 32163 ft | 468 kts | 266° |
| 2026-05-07 23:02 | 52.20919 | -23.97550 | 32182 ft | 468 kts | 266° |
| 2026-05-07 23:03 | 52.19963 | -24.08054 | 32186 ft | 469 kts | 266° |
| 2026-05-07 23:03 | 52.18997 | -24.18558 | 32188 ft | 469 kts | 266° |
| 2026-05-07 23:04 | 52.18027 | -24.28999 | 32188 ft | 469 kts | 265° |
| 2026-05-07 23:04 | 52.17042 | -24.39500 | 32184 ft | 468 kts | 266° |
| 2026-05-07 23:05 | 52.16048 | -24.49987 | 32193 ft | 468 kts | 266° |
| 2026-05-07 23:05 | 52.15046 | -24.60466 | 32203 ft | 469 kts | 266° |
| 2026-05-07 23:06 | 52.14040 | -24.70887 | 32199 ft | 469 kts | 266° |
| 2026-05-07 23:06 | 52.13017 | -24.81372 | 32207 ft | 469 kts | 266° |
| 2026-05-07 23:07 | 52.11984 | -24.91839 | 32204 ft | 468 kts | 267° |
| 2026-05-07 23:07 | 52.10947 | -25.02279 | 32203 ft | 467 kts | 267° |
| 2026-05-07 23:08 | 52.09902 | -25.12703 | 32205 ft | 467 kts | 267° |
| 2026-05-07 23:08 | 52.08855 | -25.23054 | 32213 ft | 467 kts | 266° |
| 2026-05-07 23:09 | 52.07791 | -25.33476 | 32212 ft | 467 kts | 266° |
| 2026-05-07 23:09 | 52.06718 | -25.43857 | 32224 ft | 465 kts | 268° |
| 2026-05-07 23:10 | 52.05641 | -25.54207 | 32224 ft | 464 kts | 268° |
| 2026-05-07 23:10 | 52.04566 | -25.64465 | 32226 ft | 464 kts | 267° |
| 2026-05-07 23:11 | 52.03473 | -25.74798 | 32227 ft | 464 kts | 267° |
| 2026-05-07 23:11 | 52.02369 | -25.85136 | 32224 ft | 465 kts | 267° |
| 2026-05-07 23:12 | 52.01255 | -25.95476 | 32226 ft | 465 kts | 267° |
| 2026-05-07 23:12 | 52.00139 | -26.05751 | 32224 ft | 465 kts | 267° |
| 2026-05-07 23:13 | 51.99005 | -26.16094 | 32226 ft | 466 kts | 267° |
| 2026-05-07 23:13 | 51.97886 | -26.26218 | 32241 ft | 465 kts | 267° |
| 2026-05-07 23:14 | 51.96730 | -26.36574 | 32222 ft | 463 kts | 268° |
| 2026-05-07 23:14 | 51.95583 | -26.46769 | 32234 ft | 461 kts | 268° |
| 2026-05-07 23:15 | 51.94433 | -26.56933 | 32238 ft | 460 kts | 268° |
| 2026-05-07 23:15 | 51.93268 | -26.67141 | 32244 ft | 459 kts | 268° |
| 2026-05-07 23:16 | 51.92083 | -26.77453 | 32244 ft | 460 kts | 268° |
| 2026-05-07 23:16 | 51.90902 | -26.87594 | 32245 ft | 455 kts | 270° |
| 2026-05-07 23:17 | 51.89726 | -26.97628 | 32246 ft | 452 kts | 270° |
| 2026-05-07 23:17 | 51.88558 | -27.07562 | 32254 ft | 452 kts | 270° |
| 2026-05-07 23:18 | 51.87373 | -27.17570 | 32261 ft | 453 kts | 269° |
| 2026-05-07 23:18 | 51.86173 | -27.27600 | 32259 ft | 455 kts | 269° |
| 2026-05-07 23:19 | 51.84964 | -27.37574 | 32253 ft | 448 kts | 271° |
| 2026-05-07 23:19 | 51.83763 | -27.47435 | 32253 ft | 446 kts | 271° |
| 2026-05-07 23:20 | 51.82571 | -27.57201 | 32267 ft | 446 kts | 271° |
| 2026-05-07 23:20 | 51.81361 | -27.67049 | 32264 ft | 448 kts | 271° |
| 2026-05-07 23:21 | 51.80135 | -27.76932 | 32265 ft | 449 kts | 270° |
| 2026-05-07 23:21 | 51.78900 | -27.86768 | 32263 ft | 445 kts | 271° |
| 2026-05-07 23:22 | 51.77675 | -27.96478 | 32271 ft | 444 kts | 271° |
| 2026-05-07 23:22 | 51.76439 | -28.06235 | 32276 ft | 444 kts | 271° |
| 2026-05-07 23:23 | 51.75193 | -28.15999 | 32275 ft | 445 kts | 271° |
| 2026-05-07 23:23 | 51.73936 | -28.25776 | 32203 ft | 445 kts | 271° |
| 2026-05-07 23:24 | 51.72680 | -28.35441 | 32266 ft | 442 kts | 271° |
| 2026-05-07 23:24 | 51.71415 | -28.45137 | 32279 ft | 442 kts | 271° |
| 2026-05-07 23:25 | 51.70143 | -28.54831 | 32280 ft | 442 kts | 271° |
| 2026-05-07 23:25 | 51.68861 | -28.64527 | 32286 ft | 443 kts | 271° |
| 2026-05-07 23:26 | 51.67577 | -28.74161 | 32224 ft | 442 kts | 270° |
| 2026-05-07 23:26 | 51.66280 | -28.83823 | 32295 ft | 441 kts | 270° |
| 2026-05-07 23:27 | 51.64322 | -28.98311 | 32296 ft | 442 kts | 270° |
| 2026-05-07 23:27 | 51.63005 | -29.07975 | 32295 ft | 442 kts | 270° |
| 2026-05-07 23:28 | 51.61686 | -29.17583 | 32299 ft | 443 kts | 270° |
| 2026-05-07 23:28 | 51.60349 | -29.27253 | 32269 ft | 442 kts | 269° |
| 2026-05-07 23:29 | 51.59005 | -29.36921 | 32300 ft | 444 kts | 269° |
| 2026-05-07 23:29 | 51.57648 | -29.46621 | 32308 ft | 445 kts | 269° |
| 2026-05-07 23:30 | 51.56279 | -29.56329 | 32309 ft | 446 kts | 269° |
| 2026-05-07 23:30 | 51.54910 | -29.65969 | 32312 ft | 445 kts | 269° |
| 2026-05-07 23:31 | 51.53524 | -29.75660 | 32296 ft | 445 kts | 269° |
| 2026-05-07 23:31 | 51.52130 | -29.85358 | 32307 ft | 446 kts | 268° |
| 2026-05-07 23:32 | 51.50725 | -29.95073 | 32320 ft | 447 kts | 268° |
| 2026-05-07 23:32 | 51.49460 | -30.04803 | 32314 ft | 442 kts | 271° |
| 2026-05-07 23:33 | 51.48471 | -30.14460 | 32314 ft | 441 kts | 272° |
| 2026-05-07 23:33 | 51.47484 | -30.24180 | 32316 ft | 442 kts | 271° |
| 2026-05-07 23:34 | 51.46469 | -30.33914 | 32324 ft | 444 kts | 271° |
| 2026-05-07 23:34 | 51.45429 | -30.43681 | 32324 ft | 445 kts | 271° |
| 2026-05-07 23:35 | 51.44381 | -30.53390 | 32316 ft | 445 kts | 271° |
| 2026-05-07 23:35 | 51.43320 | -30.63141 | 32326 ft | 444 kts | 271° |
| 2026-05-07 23:36 | 51.42252 | -30.72883 | 32326 ft | 444 kts | 271° |
| 2026-05-07 23:36 | 51.41179 | -30.82615 | 32329 ft | 444 kts | 271° |
| 2026-05-07 23:37 | 51.40104 | -30.92279 | 32329 ft | 444 kts | 270° |
| 2026-05-07 23:37 | 51.39014 | -31.02002 | 32339 ft | 444 kts | 270° |
| 2026-05-07 23:38 | 51.37915 | -31.11730 | 32334 ft | 444 kts | 270° |
| 2026-05-07 23:38 | 51.36807 | -31.21452 | 32320 ft | 444 kts | 270° |
| 2026-05-07 23:39 | 51.35693 | -31.31161 | 32337 ft | 444 kts | 270° |
| 2026-05-07 23:39 | 51.34577 | -31.40820 | 32347 ft | 445 kts | 270° |
| 2026-05-07 23:40 | 51.33443 | -31.50544 | 32338 ft | 445 kts | 270° |
| 2026-05-07 23:40 | 51.32302 | -31.60261 | 32337 ft | 445 kts | 270° |
| 2026-05-07 23:41 | 51.31154 | -31.69965 | 32331 ft | 444 kts | 269° |
| 2026-05-07 23:41 | 51.29997 | -31.79683 | 32342 ft | 446 kts | 269° |
| 2026-05-07 23:42 | 51.28827 | -31.89426 | 32343 ft | 447 kts | 269° |
| 2026-05-07 23:42 | 51.27655 | -31.99109 | 32341 ft | 447 kts | 269° |
| 2026-05-07 23:43 | 51.26467 | -32.08848 | 32342 ft | 446 kts | 269° |
| 2026-05-07 23:43 | 51.25274 | -32.18563 | 32341 ft | 445 kts | 268° |
| 2026-05-07 23:44 | 51.24075 | -32.28271 | 32349 ft | 446 kts | 268° |
| 2026-05-07 23:44 | 51.22872 | -32.37931 | 32350 ft | 447 kts | 268° |
| 2026-05-07 23:45 | 51.21652 | -32.47659 | 32348 ft | 448 kts | 268° |
| 2026-05-07 23:45 | 51.20422 | -32.57391 | 32354 ft | 448 kts | 268° |
| 2026-05-07 23:46 | 51.19184 | -32.67111 | 32341 ft | 447 kts | 268° |
| 2026-05-07 23:46 | 51.17950 | -32.76750 | 32350 ft | 447 kts | 268° |
| 2026-05-07 23:47 | 51.16699 | -32.86456 | 32349 ft | 448 kts | 268° |
| 2026-05-07 23:47 | 51.15436 | -32.96181 | 32362 ft | 448 kts | 267° |
| 2026-05-07 23:48 | 51.14165 | -33.05896 | 32364 ft | 448 kts | 267° |
| 2026-05-07 23:48 | 51.12894 | -33.15542 | 32353 ft | 448 kts | 267° |
| 2026-05-07 23:49 | 51.11608 | -33.25239 | 32356 ft | 448 kts | 267° |
| 2026-05-07 23:49 | 51.10313 | -33.34938 | 32359 ft | 448 kts | 267° |
| 2026-05-07 23:50 | 51.09011 | -33.44631 | 32362 ft | 448 kts | 267° |
| 2026-05-07 23:50 | 51.07708 | -33.54263 | 32361 ft | 449 kts | 267° |
| 2026-05-07 23:51 | 51.06388 | -33.63945 | 32351 ft | 447 kts | 266° |
| 2026-05-07 23:51 | 51.05063 | -33.73605 | 32358 ft | 447 kts | 266° |
| 2026-05-07 23:52 | 51.03732 | -33.83254 | 32365 ft | 447 kts | 266° |
| 2026-05-07 23:52 | 51.02401 | -33.92834 | 32360 ft | 447 kts | 266° |
| 2026-05-07 23:53 | 51.01053 | -34.02482 | 32368 ft | 448 kts | 266° |
| 2026-05-07 23:53 | 50.99696 | -34.12122 | 32367 ft | 447 kts | 266° |
| 2026-05-07 23:54 | 50.98331 | -34.21758 | 32365 ft | 448 kts | 266° |
| 2026-05-07 23:54 | 50.96967 | -34.31330 | 32366 ft | 448 kts | 266° |
| 2026-05-07 23:55 | 50.95585 | -34.40964 | 32367 ft | 448 kts | 266° |
| 2026-05-07 23:55 | 50.94194 | -34.50600 | 32365 ft | 448 kts | 266° |
| 2026-05-07 23:56 | 50.92796 | -34.60226 | 32359 ft | 448 kts | 265° |
| 2026-05-07 23:56 | 50.91398 | -34.69795 | 32364 ft | 449 kts | 265° |
| 2026-05-07 23:57 | 50.89979 | -34.79442 | 32361 ft | 450 kts | 265° |
| 2026-05-07 23:57 | 50.88551 | -34.89092 | 32361 ft | 450 kts | 265° |
| 2026-05-07 23:58 | 50.87116 | -34.98727 | 32357 ft | 449 kts | 265° |
| 2026-05-07 23:58 | 50.85678 | -35.08321 | 32359 ft | 447 kts | 264° |
| 2026-05-07 23:59 | 50.84243 | -35.17841 | 32365 ft | 448 kts | 264° |
| 2026-05-07 23:59 | 50.82790 | -35.27429 | 32364 ft | 449 kts | 264° |
| 2026-05-08 00:00 | 50.81330 | -35.37003 | 32366 ft | 449 kts | 264° |
| 2026-05-08 00:00 | 50.79861 | -35.46572 | 32366 ft | 449 kts | 264° |
| 2026-05-08 00:01 | 50.78418 | -35.55922 | 32367 ft | 449 kts | 264° |
| 2026-05-08 00:01 | 50.76927 | -35.65529 | 32505 ft | 453 kts | 264° |
| 2026-05-08 00:02 | 50.76175 | -35.70364 | 32850 ft | 454 kts | 264° |
| 2026-05-08 00:02 | 50.75417 | -35.75204 | 33248 ft | 454 kts | 264° |
| 2026-05-08 00:02 | 50.74658 | -35.80041 | 33637 ft | 454 kts | 264° |
| 2026-05-08 00:02 | 50.73897 | -35.84873 | 34069 ft | 453 kts | 264° |
| 2026-05-08 00:03 | 50.73145 | -35.89630 | 34474 ft | 452 kts | 264° |
| 2026-05-08 00:03 | 50.72384 | -35.94433 | 34849 ft | 451 kts | 264° |
| 2026-05-08 00:03 | 50.71623 | -35.99227 | 35202 ft | 450 kts | 264° |
| 2026-05-08 00:03 | 50.70861 | -36.04017 | 35561 ft | 450 kts | 264° |
| 2026-05-08 00:04 | 50.70097 | -36.08796 | 35940 ft | 449 kts | 264° |
| 2026-05-08 00:04 | 50.69334 | -36.13562 | 36321 ft | 448 kts | 264° |
| 2026-05-08 00:04 | 50.68571 | -36.18311 | 36684 ft | 447 kts | 264° |
| 2026-05-08 00:04 | 50.67808 | -36.23051 | 37038 ft | 446 kts | 264° |
| 2026-05-08 00:05 | 50.67044 | -36.27785 | 37384 ft | 445 kts | 264° |
| 2026-05-08 00:05 | 50.66290 | -36.32445 | 37710 ft | 445 kts | 264° |
| 2026-05-08 00:05 | 50.65525 | -36.37161 | 38048 ft | 444 kts | 264° |
| 2026-05-08 00:05 | 50.64759 | -36.41861 | 38349 ft | 442 kts | 263° |
| 2026-05-08 00:06 | 50.63993 | -36.46548 | 38695 ft | 441 kts | 263° |
| 2026-05-08 00:06 | 50.63227 | -36.51230 | 38985 ft | 441 kts | 263° |
| 2026-05-08 00:06 | 50.62460 | -36.55908 | 39206 ft | 441 kts | 263° |
| 2026-05-08 00:06 | 50.61688 | -36.60604 | 39280 ft | 445 kts | 263° |
| 2026-05-08 00:07 | 50.60134 | -36.70021 | 39365 ft | 449 kts | 263° |
| 2026-05-08 00:07 | 50.58556 | -36.79483 | 39358 ft | 443 kts | 263° |
| 2026-05-08 00:08 | 50.56992 | -36.88812 | 39351 ft | 440 kts | 263° |
| 2026-05-08 00:08 | 50.55431 | -36.98102 | 39362 ft | 438 kts | 262° |
| 2026-05-08 00:09 | 50.53869 | -37.07353 | 39364 ft | 437 kts | 262° |
| 2026-05-08 00:09 | 50.52312 | -37.16526 | 39364 ft | 437 kts | 262° |
| 2026-05-08 00:10 | 50.50735 | -37.25759 | 39365 ft | 438 kts | 262° |
| 2026-05-08 00:10 | 50.49149 | -37.35001 | 39343 ft | 438 kts | 262° |
| 2026-05-08 00:11 | 50.47553 | -37.44242 | 39358 ft | 438 kts | 262° |
| 2026-05-08 00:11 | 50.45961 | -37.53416 | 39362 ft | 439 kts | 262° |
| 2026-05-08 00:12 | 50.44350 | -37.62654 | 39362 ft | 439 kts | 262° |
| 2026-05-08 00:12 | 50.42729 | -37.71894 | 39364 ft | 439 kts | 262° |
| 2026-05-08 00:13 | 50.41100 | -37.81137 | 39333 ft | 440 kts | 260° |
| 2026-05-08 00:13 | 50.39465 | -37.90359 | 39355 ft | 439 kts | 261° |
| 2026-05-08 00:14 | 50.37834 | -37.99523 | 39359 ft | 440 kts | 260° |
| 2026-05-08 00:14 | 50.36183 | -38.08746 | 39356 ft | 440 kts | 260° |
| 2026-05-08 00:15 | 50.34525 | -38.17964 | 39359 ft | 440 kts | 260° |
| 2026-05-08 00:15 | 50.32857 | -38.27183 | 39342 ft | 440 kts | 260° |
| 2026-05-08 00:16 | 50.31192 | -38.36345 | 39355 ft | 441 kts | 260° |
| 2026-05-08 00:16 | 50.29505 | -38.45583 | 39358 ft | 442 kts | 260° |
| 2026-05-08 00:17 | 50.27808 | -38.54827 | 39357 ft | 443 kts | 259° |
| 2026-05-08 00:17 | 50.26099 | -38.64088 | 39356 ft | 444 kts | 259° |
| 2026-05-08 00:18 | 50.24392 | -38.73292 | 39334 ft | 444 kts | 259° |
| 2026-05-08 00:18 | 50.22663 | -38.82568 | 39354 ft | 445 kts | 259° |
| 2026-05-08 00:19 | 50.20923 | -38.91856 | 39350 ft | 446 kts | 259° |
| 2026-05-08 00:19 | 50.19172 | -39.01159 | 39353 ft | 447 kts | 259° |
| 2026-05-08 00:20 | 50.17410 | -39.10470 | 39345 ft | 448 kts | 259° |
| 2026-05-08 00:20 | 50.15651 | -39.19719 | 39338 ft | 448 kts | 258° |
| 2026-05-08 00:21 | 50.13871 | -39.29031 | 39346 ft | 448 kts | 258° |
| 2026-05-08 00:21 | 50.12084 | -39.38335 | 39352 ft | 448 kts | 258° |
| 2026-05-08 00:22 | 50.10288 | -39.47640 | 39345 ft | 449 kts | 258° |
| 2026-05-08 00:22 | 50.08495 | -39.56879 | 39345 ft | 449 kts | 258° |
| 2026-05-08 00:23 | 50.06683 | -39.66172 | 39330 ft | 448 kts | 257° |
| 2026-05-08 00:23 | 50.04864 | -39.75454 | 39338 ft | 449 kts | 257° |
| 2026-05-08 00:24 | 50.03033 | -39.84742 | 39341 ft | 449 kts | 257° |
| 2026-05-08 00:24 | 50.01208 | -39.93965 | 39340 ft | 450 kts | 257° |
| 2026-05-08 00:25 | 49.99594 | -40.03325 | 39342 ft | 446 kts | 264° |
| 2026-05-08 00:25 | 49.98635 | -40.12831 | 39337 ft | 445 kts | 265° |
| 2026-05-08 00:26 | 49.97682 | -40.22342 | 39337 ft | 446 kts | 265° |
| 2026-05-08 00:26 | 49.96703 | -40.31787 | 39337 ft | 446 kts | 265° |
| 2026-05-08 00:27 | 49.95695 | -40.41292 | 39333 ft | 446 kts | 264° |
| 2026-05-08 00:27 | 49.94674 | -40.50788 | 39334 ft | 446 kts | 264° |
| 2026-05-08 00:28 | 49.93647 | -40.60275 | 39327 ft | 445 kts | 264° |
| 2026-05-08 00:28 | 49.92620 | -40.69689 | 39337 ft | 445 kts | 264° |
| 2026-05-08 00:29 | 49.91579 | -40.79161 | 39330 ft | 445 kts | 264° |
| 2026-05-08 00:29 | 49.90530 | -40.88632 | 39326 ft | 446 kts | 264° |
| 2026-05-08 00:30 | 49.89473 | -40.98103 | 39333 ft | 446 kts | 264° |
| 2026-05-08 00:30 | 49.88408 | -41.07575 | 39309 ft | 446 kts | 263° |
| 2026-05-08 00:31 | 49.87342 | -41.16975 | 39323 ft | 446 kts | 263° |
| 2026-05-08 00:31 | 49.86260 | -41.26447 | 39330 ft | 446 kts | 263° |
| 2026-05-08 00:32 | 49.85169 | -41.35924 | 39327 ft | 447 kts | 263° |
| 2026-05-08 00:32 | 49.84071 | -41.45393 | 39329 ft | 447 kts | 263° |
| 2026-05-08 00:33 | 49.82972 | -41.54801 | 39330 ft | 447 kts | 263° |
| 2026-05-08 00:33 | 49.81859 | -41.64265 | 39317 ft | 446 kts | 262° |
| 2026-05-08 00:34 | 49.80738 | -41.73719 | 39330 ft | 446 kts | 262° |
| 2026-05-08 00:34 | 49.79610 | -41.83169 | 39323 ft | 447 kts | 262° |
| 2026-05-08 00:35 | 49.78473 | -41.92623 | 39322 ft | 447 kts | 262° |
| 2026-05-08 00:35 | 49.77335 | -42.02008 | 39323 ft | 447 kts | 262° |
| 2026-05-08 00:36 | 49.76182 | -42.11462 | 39319 ft | 447 kts | 262° |
| 2026-05-08 00:36 | 49.75021 | -42.20913 | 39324 ft | 447 kts | 262° |
| 2026-05-08 00:37 | 49.73851 | -42.30365 | 39328 ft | 448 kts | 262° |
| 2026-05-08 00:38 | 49.72090 | -42.44467 | 39318 ft | 447 kts | 261° |
| 2026-05-08 00:38 | 49.70903 | -42.53892 | 39318 ft | 447 kts | 261° |
| 2026-05-08 00:39 | 49.69708 | -42.63311 | 39313 ft | 447 kts | 261° |
| 2026-05-08 00:39 | 49.68506 | -42.72725 | 39322 ft | 447 kts | 261° |
| 2026-05-08 00:40 | 49.67305 | -42.82071 | 39324 ft | 447 kts | 261° |
| 2026-05-08 00:40 | 49.66087 | -42.91480 | 39324 ft | 447 kts | 261° |
| 2026-05-08 00:41 | 49.64860 | -43.00899 | 39318 ft | 448 kts | 261° |
| 2026-05-08 00:41 | 49.63624 | -43.10316 | 39311 ft | 448 kts | 261° |
| 2026-05-08 00:42 | 49.62389 | -43.19672 | 39332 ft | 448 kts | 260° |
| 2026-05-08 00:42 | 49.61137 | -43.29088 | 39321 ft | 448 kts | 260° |
| 2026-05-08 00:43 | 49.59879 | -43.38487 | 39316 ft | 447 kts | 260° |
| 2026-05-08 00:43 | 49.58615 | -43.47868 | 39317 ft | 447 kts | 260° |
| 2026-05-08 00:44 | 49.57356 | -43.57162 | 39310 ft | 446 kts | 259° |
| 2026-05-08 00:44 | 49.56082 | -43.66497 | 39320 ft | 445 kts | 259° |
| 2026-05-08 00:45 | 49.54801 | -43.75824 | 39323 ft | 445 kts | 259° |
| 2026-05-08 00:45 | 49.53514 | -43.85137 | 39320 ft | 445 kts | 259° |
| 2026-05-08 00:46 | 49.52219 | -43.94452 | 39318 ft | 445 kts | 259° |
| 2026-05-08 00:46 | 49.50925 | -44.03700 | 39318 ft | 445 kts | 259° |
| 2026-05-08 00:47 | 49.49613 | -44.13021 | 39330 ft | 446 kts | 258° |
| 2026-05-08 00:47 | 49.48294 | -44.22330 | 39317 ft | 446 kts | 258° |
| 2026-05-08 00:48 | 49.46966 | -44.31636 | 39315 ft | 445 kts | 258° |
| 2026-05-08 00:48 | 49.45632 | -44.40934 | 39318 ft | 445 kts | 258° |
| 2026-05-08 00:49 | 49.44301 | -44.50156 | 39320 ft | 445 kts | 258° |
| 2026-05-08 00:49 | 49.42955 | -44.59432 | 39313 ft | 445 kts | 258° |
| 2026-05-08 00:50 | 49.41602 | -44.68692 | 39321 ft | 444 kts | 257° |
| 2026-05-08 00:50 | 49.40241 | -44.77949 | 39317 ft | 444 kts | 257° |
| 2026-05-08 00:51 | 49.38883 | -44.87133 | 39319 ft | 444 kts | 257° |
| 2026-05-08 00:51 | 49.37509 | -44.96374 | 39321 ft | 444 kts | 257° |
| 2026-05-08 00:52 | 49.36127 | -45.05614 | 39323 ft | 444 kts | 257° |
| 2026-05-08 00:52 | 49.34737 | -45.14848 | 39320 ft | 444 kts | 257° |
| 2026-05-08 00:53 | 49.33349 | -45.24018 | 39318 ft | 445 kts | 257° |
| 2026-05-08 00:53 | 49.31944 | -45.33247 | 39318 ft | 445 kts | 257° |
| 2026-05-08 00:54 | 49.30531 | -45.42472 | 39318 ft | 445 kts | 257° |
| 2026-05-08 00:54 | 49.29111 | -45.51695 | 39313 ft | 445 kts | 257° |
| 2026-05-08 00:55 | 49.27694 | -45.60847 | 39316 ft | 445 kts | 257° |
| 2026-05-08 00:55 | 49.26258 | -45.70060 | 39312 ft | 445 kts | 257° |
| 2026-05-08 00:56 | 49.24815 | -45.79272 | 39315 ft | 445 kts | 256° |
| 2026-05-08 00:56 | 49.23364 | -45.88483 | 39323 ft | 445 kts | 256° |
| 2026-05-08 00:57 | 49.21908 | -45.97676 | 39306 ft | 444 kts | 256° |
| 2026-05-08 00:57 | 49.20456 | -46.06788 | 39307 ft | 443 kts | 256° |
| 2026-05-08 00:58 | 49.18992 | -46.15926 | 39309 ft | 442 kts | 256° |
| 2026-05-08 00:58 | 49.17523 | -46.25044 | 39306 ft | 441 kts | 255° |
| 2026-05-08 00:59 | 49.16049 | -46.34144 | 39304 ft | 441 kts | 255° |
| 2026-05-08 00:59 | 49.14580 | -46.43169 | 39305 ft | 441 kts | 255° |
| 2026-05-08 01:00 | 49.13095 | -46.52236 | 39304 ft | 440 kts | 255° |
| 2026-05-08 01:00 | 49.11603 | -46.61299 | 39303 ft | 440 kts | 255° |
| 2026-05-08 01:01 | 49.10104 | -46.70358 | 39297 ft | 440 kts | 255° |
| 2026-05-08 01:01 | 49.08608 | -46.79348 | 39296 ft | 440 kts | 255° |
| 2026-05-08 01:02 | 49.07097 | -46.88383 | 39296 ft | 439 kts | 255° |
| 2026-05-08 01:02 | 49.05585 | -46.97376 | 39288 ft | 436 kts | 255° |
| 2026-05-08 01:03 | 49.04082 | -47.06271 | 39274 ft | 431 kts | 255° |
| 2026-05-08 01:03 | 49.02597 | -47.15016 | 39275 ft | 427 kts | 255° |
| 2026-05-08 01:04 | 49.01105 | -47.23755 | 39274 ft | 425 kts | 255° |
| 2026-05-08 01:04 | 48.99613 | -47.32452 | 39272 ft | 424 kts | 255° |
| 2026-05-08 01:05 | 48.98115 | -47.41132 | 39274 ft | 424 kts | 255° |
| 2026-05-08 01:05 | 48.96612 | -47.49804 | 39268 ft | 424 kts | 255° |
| 2026-05-08 01:06 | 48.95114 | -47.58408 | 39260 ft | 424 kts | 255° |
| 2026-05-08 01:06 | 48.93597 | -47.67078 | 39262 ft | 424 kts | 255° |
| 2026-05-08 01:07 | 48.92072 | -47.75750 | 39250 ft | 425 kts | 255° |
| 2026-05-08 01:07 | 48.90537 | -47.84436 | 39245 ft | 426 kts | 255° |
| 2026-05-08 01:08 | 48.88991 | -47.93141 | 39239 ft | 428 kts | 255° |
| 2026-05-08 01:08 | 48.87443 | -48.01816 | 39240 ft | 429 kts | 255° |
| 2026-05-08 01:09 | 48.85871 | -48.10582 | 39227 ft | 431 kts | 255° |
| 2026-05-08 01:09 | 48.84556 | -48.17882 | 39222 ft | 432 kts | 255° |
| 2026-05-08 01:10 | 48.82965 | -48.26677 | 39223 ft | 432 kts | 254° |
| 2026-05-08 01:10 | 48.81105 | -48.36905 | 39209 ft | 433 kts | 255° |
| 2026-05-08 01:11 | 48.79759 | -48.44272 | 39205 ft | 433 kts | 255° |
| 2026-05-08 01:11 | 48.78157 | -48.53001 | 39198 ft | 433 kts | 255° |
| 2026-05-08 01:12 | 48.76538 | -48.61779 | 39206 ft | 432 kts | 255° |
| 2026-05-08 01:12 | 48.74649 | -48.71971 | 39189 ft | 432 kts | 255° |
| 2026-05-08 01:13 | 48.73284 | -48.79295 | 39180 ft | 431 kts | 256° |
| 2026-05-08 01:13 | 48.71664 | -48.87949 | 39182 ft | 429 kts | 256° |
| 2026-05-08 01:14 | 48.70037 | -48.96614 | 39180 ft | 427 kts | 256° |
| 2026-05-08 01:14 | 48.68407 | -49.05248 | 39181 ft | 426 kts | 256° |
| 2026-05-08 01:15 | 48.66776 | -49.13844 | 39171 ft | 425 kts | 256° |
| 2026-05-08 01:15 | 48.65154 | -49.22358 | 39174 ft | 424 kts | 256° |
| 2026-05-08 01:16 | 48.63519 | -49.30897 | 39175 ft | 422 kts | 256° |
| 2026-05-08 01:16 | 48.61882 | -49.39410 | 39169 ft | 421 kts | 256° |
| 2026-05-08 01:17 | 48.60244 | -49.47887 | 39168 ft | 420 kts | 256° |
| 2026-05-08 01:17 | 48.58606 | -49.56332 | 39161 ft | 418 kts | 256° |
| 2026-05-08 01:18 | 48.56978 | -49.64681 | 39160 ft | 417 kts | 256° |
| 2026-05-08 01:18 | 48.55337 | -49.73062 | 39160 ft | 416 kts | 256° |
| 2026-05-08 01:19 | 48.53692 | -49.81418 | 39144 ft | 415 kts | 256° |
| 2026-05-08 01:19 | 48.52042 | -49.89756 | 39144 ft | 415 kts | 256° |
| 2026-05-08 01:20 | 48.50401 | -49.98040 | 39143 ft | 415 kts | 256° |
| 2026-05-08 01:20 | 48.48530 | -50.06290 | 39148 ft | 416 kts | 253° |
| 2026-05-08 01:21 | 48.46556 | -50.14503 | 39133 ft | 417 kts | 253° |
| 2026-05-08 01:21 | 48.44578 | -50.22688 | 39124 ft | 415 kts | 254° |
| 2026-05-08 01:22 | 48.42622 | -50.30765 | 39150 ft | 411 kts | 253° |
| 2026-05-08 01:22 | 48.40667 | -50.38816 | 39120 ft | 407 kts | 253° |
| 2026-05-08 01:23 | 48.38729 | -50.46770 | 39118 ft | 403 kts | 253° |
| 2026-05-08 01:23 | 48.36801 | -50.54660 | 39100 ft | 401 kts | 253° |
| 2026-05-08 01:24 | 48.34878 | -50.62495 | 39107 ft | 398 kts | 253° |
| 2026-05-08 01:24 | 48.32975 | -50.70222 | 39098 ft | 396 kts | 253° |
| 2026-05-08 01:25 | 48.31062 | -50.77964 | 39097 ft | 395 kts | 253° |
| 2026-05-08 01:25 | 48.29149 | -50.85681 | 39085 ft | 394 kts | 253° |
| 2026-05-08 01:26 | 48.27230 | -50.93397 | 39083 ft | 395 kts | 253° |
| 2026-05-08 01:26 | 48.25313 | -51.01074 | 39079 ft | 395 kts | 253° |
| 2026-05-08 01:27 | 48.23380 | -51.08785 | 39079 ft | 394 kts | 253° |
| 2026-05-08 01:27 | 48.21448 | -51.16469 | 39070 ft | 393 kts | 253° |
| 2026-05-08 01:28 | 48.19517 | -51.24122 | 39083 ft | 392 kts | 253° |
| 2026-05-08 01:28 | 48.17589 | -51.31739 | 39066 ft | 390 kts | 253° |
| 2026-05-08 01:29 | 48.15676 | -51.39270 | 39052 ft | 388 kts | 253° |
| 2026-05-08 01:29 | 48.13756 | -51.46799 | 39053 ft | 386 kts | 253° |
| 2026-05-08 01:30 | 48.11846 | -51.54271 | 39047 ft | 383 kts | 253° |
| 2026-05-08 01:30 | 48.09945 | -51.61681 | 39041 ft | 381 kts | 253° |
| 2026-05-08 01:31 | 48.08060 | -51.69004 | 39035 ft | 379 kts | 253° |
| 2026-05-08 01:31 | 48.06162 | -51.76353 | 39033 ft | 379 kts | 253° |
| 2026-05-08 01:32 | 48.04259 | -51.83691 | 39017 ft | 379 kts | 253° |
| 2026-05-08 01:32 | 48.02352 | -51.91019 | 39026 ft | 378 kts | 253° |
| 2026-05-08 01:33 | 48.00459 | -51.98283 | 39014 ft | 378 kts | 253° |
| 2026-05-08 01:33 | 47.98545 | -52.05576 | 39008 ft | 377 kts | 253° |
| 2026-05-08 01:34 | 47.96615 | -52.12864 | 39009 ft | 377 kts | 253° |
| 2026-05-08 01:34 | 47.94677 | -52.20143 | 39004 ft | 377 kts | 252° |
| 2026-05-08 01:35 | 47.92737 | -52.27398 | 39002 ft | 376 kts | 253° |
| 2026-05-08 01:35 | 47.90814 | -52.34565 | 38979 ft | 374 kts | 253° |
| 2026-05-08 01:36 | 47.88886 | -52.41737 | 38974 ft | 372 kts | 253° |
| 2026-05-08 01:36 | 47.86961 | -52.48876 | 38972 ft | 371 kts | 253° |
| 2026-05-08 01:37 | 47.85036 | -52.55993 | 38971 ft | 370 kts | 253° |
| 2026-05-08 01:37 | 47.83107 | -52.63102 | 38975 ft | 370 kts | 252° |
| 2026-05-08 01:38 | 47.81190 | -52.70144 | 38962 ft | 369 kts | 253° |
| 2026-05-08 01:38 | 47.79257 | -52.77224 | 38959 ft | 369 kts | 253° |
| 2026-05-08 01:39 | 47.77321 | -52.84295 | 38953 ft | 370 kts | 253° |
| 2026-05-08 01:39 | 47.75380 | -52.91363 | 38960 ft | 369 kts | 253° |
| 2026-05-08 01:40 | 47.73446 | -52.98382 | 38954 ft | 369 kts | 253° |
| 2026-05-08 01:40 | 47.71496 | -53.05441 | 38977 ft | 369 kts | 252° |
| 2026-05-08 01:41 | 47.69543 | -53.12488 | 38946 ft | 368 kts | 252° |
| 2026-05-08 01:41 | 47.67594 | -53.19500 | 38918 ft | 367 kts | 252° |
| 2026-05-08 01:42 | 47.65660 | -53.26434 | 38931 ft | 366 kts | 252° |
| 2026-05-08 01:42 | 47.63717 | -53.33388 | 38917 ft | 364 kts | 252° |
| 2026-05-08 01:43 | 47.61775 | -53.40314 | 38899 ft | 364 kts | 252° |
| 2026-05-08 01:43 | 47.59832 | -53.47227 | 38899 ft | 363 kts | 252° |
| 2026-05-08 01:44 | 47.57885 | -53.54129 | 38899 ft | 363 kts | 252° |
| 2026-05-08 01:44 | 47.55947 | -53.60982 | 38888 ft | 363 kts | 252° |
| 2026-05-08 01:45 | 47.53991 | -53.67876 | 38896 ft | 364 kts | 252° |
| 2026-05-08 01:45 | 47.52027 | -53.74778 | 38893 ft | 364 kts | 252° |
| 2026-05-08 01:46 | 47.50059 | -53.81674 | 38880 ft | 364 kts | 252° |
| 2026-05-08 01:46 | 47.48097 | -53.88527 | 38883 ft | 364 kts | 252° |
| 2026-05-08 01:47 | 47.46115 | -53.95423 | 38877 ft | 365 kts | 252° |
| 2026-05-08 01:47 | 47.44133 | -54.02313 | 38880 ft | 364 kts | 252° |
| 2026-05-08 01:48 | 47.41751 | -54.12882 | 38878 ft | 360 kts | 259° |
| 2026-05-08 01:48 | 47.40825 | -54.20083 | 38883 ft | 359 kts | 264° |
| 2026-05-08 01:49 | 47.40292 | -54.27415 | 38885 ft | 359 kts | 265° |
| 2026-05-08 01:49 | 47.39774 | -54.34768 | 38884 ft | 361 kts | 264° |
| 2026-05-08 01:50 | 47.39234 | -54.42151 | 38876 ft | 362 kts | 264° |
| 2026-05-08 01:50 | 47.38679 | -54.49551 | 38883 ft | 363 kts | 264° |
| 2026-05-08 01:51 | 47.38117 | -54.56924 | 38908 ft | 364 kts | 264° |
| 2026-05-08 01:51 | 47.37545 | -54.64343 | 38888 ft | 364 kts | 263° |
| 2026-05-08 01:52 | 47.36968 | -54.71742 | 38882 ft | 362 kts | 263° |
| 2026-05-08 01:52 | 47.36390 | -54.79111 | 38876 ft | 361 kts | 263° |
| 2026-05-08 01:53 | 47.35813 | -54.86405 | 38883 ft | 360 kts | 263° |
| 2026-05-08 01:53 | 47.35229 | -54.93726 | 38884 ft | 359 kts | 263° |
| 2026-05-08 01:54 | 47.34640 | -55.01043 | 38869 ft | 359 kts | 263° |
| 2026-05-08 01:54 | 47.34047 | -55.08352 | 38847 ft | 359 kts | 263° |
| 2026-05-08 01:55 | 47.33450 | -55.15661 | 38878 ft | 359 kts | 262° |
| 2026-05-08 01:55 | 47.32852 | -55.22925 | 38855 ft | 360 kts | 262° |
| 2026-05-08 01:56 | 47.32244 | -55.30243 | 38810 ft | 360 kts | 262° |
| 2026-05-08 01:56 | 47.31631 | -55.37560 | 38809 ft | 360 kts | 262° |
| 2026-05-08 01:57 | 47.31012 | -55.44898 | 38805 ft | 361 kts | 262° |
| 2026-05-08 01:57 | 47.30392 | -55.52195 | 38770 ft | 362 kts | 262° |
| 2026-05-08 01:58 | 47.29761 | -55.59555 | 38773 ft | 362 kts | 262° |
| 2026-05-08 01:58 | 47.29124 | -55.66924 | 38772 ft | 363 kts | 262° |
| 2026-05-08 01:59 | 47.28483 | -55.74294 | 38777 ft | 363 kts | 261° |
| 2026-05-08 01:59 | 47.27842 | -55.81609 | 38763 ft | 362 kts | 261° |
| 2026-05-08 02:00 | 47.27193 | -55.88951 | 38759 ft | 361 kts | 261° |
| 2026-05-08 02:00 | 47.26543 | -55.96266 | 38765 ft | 360 kts | 261° |
| 2026-05-08 02:01 | 47.25889 | -56.03563 | 38760 ft | 359 kts | 261° |
| 2026-05-08 02:01 | 47.25231 | -56.10852 | 38753 ft | 360 kts | 261° |
| 2026-05-08 02:02 | 47.24568 | -56.18130 | 38779 ft | 364 kts | 261° |
| 2026-05-08 02:02 | 47.23886 | -56.25561 | 38936 ft | 369 kts | 261° |
| 2026-05-08 02:03 | 47.23541 | -56.29307 | 39084 ft | 370 kts | 260° |
| 2026-05-08 02:03 | 47.23195 | -56.33051 | 39274 ft | 370 kts | 260° |
| 2026-05-08 02:03 | 47.22495 | -56.40583 | 39483 ft | 373 kts | 260° |
| 2026-05-08 02:04 | 47.22141 | -56.44369 | 39598 ft | 375 kts | 260° |
| 2026-05-08 02:04 | 47.21790 | -56.48120 | 39667 ft | 376 kts | 260° |
| 2026-05-08 02:04 | 47.21068 | -56.55768 | 39758 ft | 379 kts | 260° |
| 2026-05-08 02:05 | 47.20338 | -56.63446 | 39764 ft | 379 kts | 260° |
| 2026-05-08 02:05 | 47.19604 | -56.71123 | 39773 ft | 379 kts | 260° |
| 2026-05-08 02:06 | 47.18863 | -56.78804 | 39769 ft | 379 kts | 260° |
| 2026-05-08 02:06 | 47.18123 | -56.86425 | 39830 ft | 379 kts | 259° |
| 2026-05-08 02:07 | 47.17372 | -56.94105 | 39787 ft | 379 kts | 259° |
| 2026-05-08 02:07 | 47.16618 | -57.01759 | 39773 ft | 378 kts | 259° |
| 2026-05-08 02:08 | 47.15862 | -57.09375 | 39768 ft | 376 kts | 259° |
| 2026-05-08 02:08 | 47.15105 | -57.16960 | 39759 ft | 375 kts | 259° |
| 2026-05-08 02:09 | 47.14349 | -57.24475 | 39748 ft | 374 kts | 259° |
| 2026-05-08 02:09 | 47.13583 | -57.32035 | 39755 ft | 374 kts | 259° |
| 2026-05-08 02:10 | 47.12811 | -57.39604 | 39752 ft | 375 kts | 259° |
| 2026-05-08 02:10 | 47.12031 | -57.47199 | 39758 ft | 377 kts | 258° |
| 2026-05-08 02:11 | 47.11250 | -57.54753 | 39745 ft | 377 kts | 258° |
| 2026-05-08 02:11 | 47.10458 | -57.62365 | 39739 ft | 377 kts | 258° |
| 2026-05-08 02:12 | 47.09662 | -57.69965 | 39738 ft | 377 kts | 258° |
| 2026-05-08 02:12 | 47.08862 | -57.77557 | 39735 ft | 376 kts | 258° |
| 2026-05-08 02:13 | 47.08062 | -57.85088 | 39723 ft | 376 kts | 258° |
| 2026-05-08 02:13 | 47.07252 | -57.92671 | 39731 ft | 376 kts | 258° |
| 2026-05-08 02:14 | 47.06436 | -58.00256 | 39748 ft | 377 kts | 257° |
| 2026-05-08 02:14 | 47.05613 | -58.07854 | 39729 ft | 377 kts | 257° |
| 2026-05-08 02:15 | 47.04791 | -58.15391 | 39723 ft | 377 kts | 257° |
| 2026-05-08 02:15 | 47.03958 | -58.22978 | 39717 ft | 377 kts | 257° |
| 2026-05-08 02:16 | 47.03121 | -58.30552 | 39715 ft | 376 kts | 257° |
| 2026-05-08 02:16 | 47.02277 | -58.38121 | 39708 ft | 376 kts | 257° |
| 2026-05-08 02:17 | 47.01436 | -58.45641 | 39709 ft | 376 kts | 257° |
| 2026-05-08 02:17 | 47.00464 | -58.53153 | 39700 ft | 374 kts | 251° |
| 2026-05-08 02:18 | 46.98685 | -58.60282 | 39721 ft | 372 kts | 246° |
| 2026-05-08 02:18 | 46.96350 | -58.67021 | 39724 ft | 371 kts | 239° |
| 2026-05-08 02:19 | 46.93621 | -58.73431 | 39703 ft | 371 kts | 239° |
| 2026-05-08 02:19 | 46.90897 | -58.79773 | 39695 ft | 371 kts | 239° |
| 2026-05-08 02:20 | 46.88268 | -58.86260 | 39703 ft | 371 kts | 243° |
| 2026-05-08 02:20 | 46.85948 | -58.92995 | 39705 ft | 371 kts | 243° |
| 2026-05-08 02:21 | 46.83597 | -58.99716 | 39705 ft | 372 kts | 243° |
| 2026-05-08 02:21 | 46.81248 | -59.06385 | 39703 ft | 372 kts | 243° |
| 2026-05-08 02:22 | 46.78875 | -59.13099 | 39701 ft | 372 kts | 243° |
| 2026-05-08 02:22 | 46.76496 | -59.19812 | 39696 ft | 373 kts | 242° |
| 2026-05-08 02:23 | 46.74112 | -59.26521 | 39685 ft | 373 kts | 242° |
| 2026-05-08 02:23 | 46.71738 | -59.33184 | 39685 ft | 373 kts | 242° |
| 2026-05-08 02:24 | 46.69345 | -59.39884 | 39718 ft | 373 kts | 242° |
| 2026-05-08 02:24 | 46.66946 | -59.46586 | 39697 ft | 373 kts | 242° |
| 2026-05-08 02:25 | 46.64545 | -59.53274 | 39691 ft | 372 kts | 242° |
| 2026-05-08 02:25 | 46.62162 | -59.59899 | 39689 ft | 372 kts | 242° |
| 2026-05-08 02:26 | 46.59762 | -59.66553 | 39684 ft | 371 kts | 242° |
| 2026-05-08 02:26 | 46.57362 | -59.73188 | 39688 ft | 371 kts | 242° |
| 2026-05-08 02:27 | 46.54961 | -59.79814 | 39684 ft | 370 kts | 241° |
| 2026-05-08 02:27 | 46.52557 | -59.86428 | 39686 ft | 370 kts | 241° |
| 2026-05-08 02:28 | 46.50164 | -59.92997 | 39681 ft | 370 kts | 241° |
| 2026-05-08 02:28 | 46.47751 | -59.99603 | 39683 ft | 371 kts | 241° |
| 2026-05-08 02:29 | 46.45330 | -60.06215 | 39680 ft | 371 kts | 241° |
| 2026-05-08 02:29 | 46.42902 | -60.12832 | 39677 ft | 372 kts | 241° |
| 2026-05-08 02:30 | 46.40467 | -60.19450 | 39673 ft | 372 kts | 241° |
| 2026-05-08 02:30 | 46.38042 | -60.26025 | 39667 ft | 373 kts | 240° |
| 2026-05-08 02:31 | 46.35595 | -60.32644 | 39675 ft | 373 kts | 240° |
| 2026-05-08 02:31 | 46.33139 | -60.39270 | 39673 ft | 374 kts | 240° |
| 2026-05-08 02:32 | 46.30678 | -60.45893 | 39676 ft | 374 kts | 240° |
| 2026-05-08 02:32 | 46.28211 | -60.52515 | 39676 ft | 374 kts | 240° |
| 2026-05-08 02:33 | 46.25754 | -60.59099 | 39650 ft | 374 kts | 240° |
| 2026-05-08 02:33 | 46.23279 | -60.65711 | 39682 ft | 374 kts | 240° |
| 2026-05-08 02:34 | 46.20799 | -60.72323 | 39669 ft | 375 kts | 240° |
| 2026-05-08 02:34 | 46.18313 | -60.78930 | 39685 ft | 375 kts | 240° |
| 2026-05-08 02:35 | 46.15837 | -60.85498 | 39684 ft | 375 kts | 240° |
| 2026-05-08 02:35 | 46.13340 | -60.92106 | 39657 ft | 371 kts | 240° |
| 2026-05-08 02:36 | 46.10895 | -60.98562 | 39713 ft | 366 kts | 239° |
| 2026-05-08 02:36 | 46.08453 | -61.04992 | 39686 ft | 366 kts | 239° |
| 2026-05-08 02:37 | 46.06013 | -61.11399 | 39686 ft | 368 kts | 239° |
| 2026-05-08 02:37 | 46.04779 | -61.14636 | 39548 ft | 369 kts | 239° |
| 2026-05-08 02:37 | 46.03553 | -61.17845 | 39581 ft | 365 kts | 239° |
| 2026-05-08 02:38 | 46.01111 | -61.24232 | 39583 ft | 364 kts | 239° |
| 2026-05-08 02:38 | 45.98669 | -61.30604 | 39554 ft | 358 kts | 239° |
| 2026-05-08 02:39 | 45.97489 | -61.33682 | 39457 ft | 346 kts | 239° |
| 2026-05-08 02:39 | 45.96350 | -61.36648 | 39000 ft | 344 kts | 239° |
| 2026-05-08 02:39 | 45.95170 | -61.39712 | 38572 ft | 346 kts | 239° |
| 2026-05-08 02:39 | 45.94022 | -61.42688 | 37788 ft | 345 kts | 238° |
| 2026-05-08 02:40 | 45.92857 | -61.45704 | 36992 ft | 344 kts | 238° |
| 2026-05-08 02:40 | 45.91698 | -61.48704 | 36179 ft | 343 kts | 238° |
| 2026-05-08 02:40 | 45.90543 | -61.51691 | 35533 ft | 340 kts | 237° |
| 2026-05-08 02:40 | 45.89400 | -61.54647 | 34885 ft | 338 kts | 237° |
| 2026-05-08 02:41 | 45.88265 | -61.57578 | 34288 ft | 335 kts | 237° |
| 2026-05-08 02:41 | 45.87135 | -61.60491 | 33705 ft | 332 kts | 237° |
| 2026-05-08 02:41 | 45.86031 | -61.63337 | 33066 ft | 330 kts | 236° |
| 2026-05-08 02:41 | 45.84921 | -61.66196 | 32485 ft | 326 kts | 235° |
| 2026-05-08 02:42 | 45.83821 | -61.69026 | 31940 ft | 323 kts | 235° |
| 2026-05-08 02:42 | 45.82733 | -61.71821 | 31391 ft | 320 kts | 234° |
| 2026-05-08 02:42 | 45.81654 | -61.74590 | 30861 ft | 316 kts | 234° |
| 2026-05-08 02:42 | 45.80584 | -61.77334 | 30385 ft | 315 kts | 233° |
| 2026-05-08 02:43 | 45.79509 | -61.80080 | 29842 ft | 319 kts | 233° |
| 2026-05-08 02:43 | 45.78402 | -61.82891 | 29221 ft | 328 kts | 233° |
| 2026-05-08 02:43 | 45.77281 | -61.85742 | 28577 ft | 328 kts | 234° |
| 2026-05-08 02:43 | 45.76188 | -61.88534 | 28010 ft | 323 kts | 235° |
| 2026-05-08 02:44 | 45.75098 | -61.91319 | 27431 ft | 319 kts | 235° |
| 2026-05-08 02:44 | 45.74020 | -61.94068 | 26871 ft | 315 kts | 236° |
| 2026-05-08 02:44 | 45.72954 | -61.96784 | 26314 ft | 311 kts | 236° |
| 2026-05-08 02:44 | 45.71901 | -61.99459 | 25792 ft | 307 kts | 237° |
| 2026-05-08 02:45 | 45.70858 | -62.02106 | 25283 ft | 304 kts | 237° |
| 2026-05-08 02:45 | 45.69825 | -62.04724 | 24782 ft | 301 kts | 238° |
| 2026-05-08 02:45 | 45.68802 | -62.07312 | 24291 ft | 298 kts | 238° |
| 2026-05-08 02:45 | 45.67789 | -62.09874 | 23798 ft | 295 kts | 239° |
| 2026-05-08 02:46 | 45.66796 | -62.12380 | 23321 ft | 292 kts | 239° |
| 2026-05-08 02:46 | 45.65799 | -62.14898 | 22777 ft | 289 kts | 239° |
| 2026-05-08 02:46 | 45.64813 | -62.17389 | 22269 ft | 286 kts | 239° |
| 2026-05-08 02:46 | 45.63838 | -62.19851 | 21809 ft | 283 kts | 239° |
| 2026-05-08 02:47 | 45.62878 | -62.22279 | 21373 ft | 279 kts | 239° |
| 2026-05-08 02:47 | 45.61874 | -62.24619 | 20928 ft | 274 kts | 233° |
| 2026-05-08 02:47 | 45.60648 | -62.26679 | 20532 ft | 272 kts | 230° |
| 2026-05-08 02:47 | 45.59393 | -62.28715 | 20103 ft | 274 kts | 230° |
| 2026-05-08 02:48 | 45.58132 | -62.30759 | 19706 ft | 284 kts | 230° |
| 2026-05-08 02:48 | 45.56805 | -62.32911 | 19279 ft | 292 kts | 230° |
| 2026-05-08 02:48 | 45.55458 | -62.35092 | 18827 ft | 292 kts | 230° |
| 2026-05-08 02:48 | 45.54119 | -62.37261 | 18399 ft | 290 kts | 229° |
| 2026-05-08 02:49 | 45.52789 | -62.39415 | 17963 ft | 289 kts | 229° |
| 2026-05-08 02:49 | 45.51465 | -62.41562 | 17478 ft | 287 kts | 229° |
| 2026-05-08 02:49 | 45.50151 | -62.43690 | 17027 ft | 285 kts | 229° |
| 2026-05-08 02:49 | 45.48846 | -62.45804 | 16601 ft | 285 kts | 229° |
| 2026-05-08 02:50 | 45.47523 | -62.47944 | 16089 ft | 290 kts | 229° |
| 2026-05-08 02:50 | 45.46194 | -62.50093 | 15621 ft | 295 kts | 229° |
| 2026-05-08 02:50 | 45.44830 | -62.52295 | 15216 ft | 297 kts | 229° |
| 2026-05-08 02:50 | 45.43465 | -62.54499 | 14913 ft | 297 kts | 229° |
| 2026-05-08 02:51 | 45.42103 | -62.56696 | 14605 ft | 295 kts | 229° |
| 2026-05-08 02:51 | 45.40746 | -62.58884 | 14185 ft | 294 kts | 229° |
| 2026-05-08 02:51 | 45.39397 | -62.61056 | 13761 ft | 292 kts | 229° |
| 2026-05-08 02:51 | 45.38057 | -62.63214 | 13298 ft | 291 kts | 229° |
| 2026-05-08 02:52 | 45.36721 | -62.65364 | 12817 ft | 289 kts | 229° |
| 2026-05-08 02:52 | 45.35393 | -62.67498 | 12365 ft | 287 kts | 229° |
| 2026-05-08 02:52 | 45.34092 | -62.69586 | 11955 ft | 285 kts | 229° |
| 2026-05-08 02:52 | 45.32784 | -62.71683 | 11516 ft | 283 kts | 229° |
| 2026-05-08 02:53 | 45.31483 | -62.73770 | 11091 ft | 281 kts | 229° |
| 2026-05-08 02:53 | 45.30191 | -62.75839 | 10670 ft | 279 kts | 229° |
| 2026-05-08 02:53 | 45.28912 | -62.77886 | 10347 ft | 274 kts | 229° |
| 2026-05-08 02:53 | 45.27703 | -62.79817 | 9899 ft | 252 kts | 229° |
| 2026-05-08 02:54 | 45.26541 | -62.81675 | 9253 ft | 254 kts | 229° |
| 2026-05-08 02:54 | 45.25371 | -62.83540 | 8921 ft | 251 kts | 229° |
| 2026-05-08 02:54 | 45.24262 | -62.85309 | 8916 ft | 237 kts | 229° |
| 2026-05-08 02:54 | 45.23179 | -62.87039 | 8910 ft | 233 kts | 229° |
| 2026-05-08 02:55 | 45.22087 | -62.88781 | 8917 ft | 240 kts | 229° |
| 2026-05-08 02:55 | 45.19853 | -62.92350 | 8826 ft | 243 kts | 230° |
| 2026-05-08 02:55 | 45.18893 | -62.94350 | 8501 ft | 248 kts | 240° |
| 2026-05-08 02:56 | 45.18071 | -62.96507 | 8205 ft | 248 kts | 242° |
| 2026-05-08 02:56 | 45.17276 | -62.98659 | 7902 ft | 245 kts | 242° |
| 2026-05-08 02:56 | 45.16500 | -63.00750 | 7615 ft | 242 kts | 242° |
| 2026-05-08 02:56 | 45.15714 | -63.02843 | 7351 ft | 241 kts | 243° |
| 2026-05-08 02:57 | 45.14918 | -63.04944 | 7063 ft | 243 kts | 243° |
| 2026-05-08 02:57 | 45.14113 | -63.07055 | 6789 ft | 244 kts | 243° |
| 2026-05-08 02:57 | 45.13298 | -63.09178 | 6494 ft | 246 kts | 243° |
| 2026-05-08 02:57 | 45.12476 | -63.11313 | 6218 ft | 248 kts | 243° |
| 2026-05-08 02:58 | 45.11654 | -63.13441 | 6066 ft | 241 kts | 243° |
| 2026-05-08 02:58 | 45.10868 | -63.15465 | 6058 ft | 228 kts | 244° |
| 2026-05-08 02:58 | 45.10109 | -63.17422 | 5915 ft | 229 kts | 244° |
| 2026-05-08 02:58 | 45.09347 | -63.19386 | 5613 ft | 230 kts | 244° |
| 2026-05-08 02:59 | 45.08581 | -63.21353 | 5338 ft | 226 kts | 244° |
| 2026-05-08 02:59 | 45.07828 | -63.23286 | 5072 ft | 223 kts | 244° |
| 2026-05-08 02:59 | 45.07081 | -63.25202 | 4824 ft | 223 kts | 244° |
| 2026-05-08 02:59 | 45.06331 | -63.27123 | 4578 ft | 224 kts | 244° |
| 2026-05-08 03:00 | 45.05575 | -63.29060 | 4318 ft | 226 kts | 244° |
| 2026-05-08 03:00 | 45.04815 | -63.31010 | 4056 ft | 227 kts | 244° |
| 2026-05-08 03:00 | 45.04053 | -63.32960 | 3865 ft | 225 kts | 244° |
| 2026-05-08 03:00 | 45.03324 | -63.34827 | 3739 ft | 215 kts | 244° |
| 2026-05-08 03:01 | 45.02528 | -63.36526 | 3622 ft | 207 kts | 229° |
| 2026-05-08 03:01 | 45.01441 | -63.37871 | 3425 ft | 208 kts | 223° |
| 2026-05-08 03:01 | 45.00289 | -63.39124 | 3180 ft | 207 kts | 220° |
| 2026-05-08 03:01 | 44.99148 | -63.40267 | 2989 ft | 196 kts | 219° |
| 2026-05-08 03:02 | 44.98053 | -63.41352 | 2726 ft | 189 kts | 219° |
| 2026-05-08 03:02 | 44.97015 | -63.42380 | 2457 ft | 176 kts | 220° |
| 2026-05-08 03:02 | 44.96026 | -63.43361 | 2249 ft | 169 kts | 220° |
| 2026-05-08 03:02 | 44.95111 | -63.44268 | 2013 ft | 157 kts | 221° |
| 2026-05-08 03:03 | 44.94238 | -63.45134 | 1803 ft | 151 kts | 221° |
| 2026-05-08 03:03 | 44.93383 | -63.45982 | 1605 ft | 151 kts | 222° |
| 2026-05-08 03:03 | 44.92521 | -63.46835 | 1391 ft | 151 kts | 221° |
| 2026-05-08 03:03 | 44.91665 | -63.47683 | 1178 ft | 151 kts | 220° |
| 2026-05-08 03:04 | 44.90802 | -63.48536 | 987 ft | 152 kts | 219° |
| 2026-05-08 03:04 | 44.89933 | -63.49391 | 774 ft | 152 kts | 218° |
| 2026-05-08 03:04 | 44.89069 | -63.50249 | 580 ft | 151 kts | 219° |
| 2026-05-08 03:04 | 44.88256 | -63.51054 | 458 ft | 117 kts | 217° |
| 2026-05-08 03:05 | 44.87885 | -63.51434 | 469 ft | 52 kts | 218° |
| 2026-05-08 03:05 | 44.87617 | -63.51688 | 468 ft | 38 kts | 214° |
| 2026-05-08 03:05 | 44.87451 | -63.51944 | 467 ft | 34 kts | 257° |
| 2026-05-08 03:05 | 44.87506 | -63.52105 | 469 ft | 15 kts | 358° |
| 2026-05-08 03:06 | 44.87598 | -63.52030 | 470 ft | 15 kts | 33° |
| 2026-05-08 03:06 | 44.87652 | -63.51977 | 468 ft | 15 kts | 34° |
| 2026-05-08 03:17 | 44.87666 | -63.51964 | 467 ft | 15 kts | 35° |
| 2026-05-08 03:17 | 44.87759 | -63.51887 | 467 ft | 16 kts | 31° |
| 2026-05-08 03:18 | 44.87847 | -63.51797 | 470 ft | 16 kts | 37° |
| 2026-05-08 03:18 | 44.87936 | -63.51706 | 470 ft | 17 kts | 37° |
| 2026-05-08 03:18 | 44.88037 | -63.51598 | 457 ft | 20 kts | 38° |
| 2026-05-08 03:18 | 44.88140 | -63.51493 | 458 ft | 17 kts | 34° |
| 2026-05-08 03:19 | 44.88236 | -63.51401 | 457 ft | 7 kts | 33° |
| 2026-05-08 03:19 | 44.88278 | -63.51361 | 456 ft | 7 kts | 38° |
| 2026-05-08 03:19 | 44.88319 | -63.51315 | 456 ft | 7 kts | 36° |
| 2026-05-08 03:19 | 44.88361 | -63.51271 | 456 ft | 8 kts | 34° |
| 2026-05-08 03:20 | 44.88406 | -63.51232 | 456 ft | 8 kts | 30° |
| 2026-05-08 03:20 | 44.88457 | -63.51212 | 456 ft | 8 kts | 5° |
| 2026-05-08 03:20 | 44.88511 | -63.51217 | 456 ft | 8 kts | 351° |
| 2026-05-08 03:20 | 44.88564 | -63.51229 | 456 ft | 8 kts | 349° |
| 2026-05-08 03:21 | 44.88617 | -63.51240 | 456 ft | 8 kts | 351° |
| 2026-05-08 03:21 | 44.88670 | -63.51252 | 456 ft | 8 kts | 355° |
| 2026-05-08 03:21 | 44.88724 | -63.51265 | 456 ft | 8 kts | 350° |
| 2026-05-08 03:21 | 44.88778 | -63.51279 | 456 ft | 8 kts | 356° |
| 2026-05-08 03:22 | 44.88832 | -63.51297 | 456 ft | 8 kts | 347° |
| 2026-05-08 03:22 | 44.88886 | -63.51316 | 456 ft | 8 kts | 337° |
| 2026-05-08 03:22 | 44.88919 | -63.51344 | 456 ft | 8 kts | 319° |
| 2026-05-08 03:22 | 44.88948 | -63.51408 | 456 ft | 8 kts | 269° |
| 2026-05-08 03:23 | 44.88907 | -63.51449 | 456 ft | 1 kts | 210° |
| 2026-05-08 03:23 | 44.88905 | -63.51450 | 456 ft | 2 kts | 209° |
| 2026-05-08 03:23 | 44.88896 | -63.51459 | 456 ft | 0 kts | 216° |